createdAt,value
2023-03-02T00:01:10.733Z,23.40
2023-03-02T00:03:38.849Z,23.10
2023-03-02T00:06:06.272Z,23.55
2023-03-02T00:08:33.572Z,23.92
2023-03-02T00:11:01.380Z,23.73
2023-03-02T00:13:31.899Z,24.08
2023-03-02T00:15:59.241Z,22.83
2023-03-02T00:18:26.560Z,23.20
2023-03-02T00:20:53.903Z,23.35
2023-03-02T00:23:21.254Z,23.92
2023-03-02T00:25:48.583Z,23.45
2023-03-02T00:28:15.887Z,23.83
2023-03-02T00:30:43.220Z,25.27
2023-03-02T00:33:10.631Z,24.10
2023-03-02T00:35:41.242Z,24.65
2023-03-02T00:38:09.022Z,24.40
2023-03-02T00:40:36.454Z,23.30
2023-03-02T00:43:03.956Z,24.00
2023-03-02T00:45:31.383Z,24.80
2023-03-02T00:47:58.934Z,23.85
2023-03-02T00:50:26.368Z,24.45
2023-03-02T00:52:53.789Z,24.70
2023-03-02T00:55:21.101Z,24.55
2023-03-02T00:57:55.167Z,23.92
2023-03-02T01:00:28.622Z,24.50
2023-03-02T01:02:59.111Z,23.85
2023-03-02T01:05:26.731Z,25.20
2023-03-02T01:07:54.147Z,24.33
2023-03-02T01:10:21.479Z,25.58
2023-03-02T01:12:48.810Z,24.98
2023-03-02T01:15:16.159Z,25.10
2023-03-02T01:17:43.996Z,23.50
2023-03-02T01:20:12.193Z,24.25
2023-03-02T01:22:39.524Z,24.30
2023-03-02T01:25:07.316Z,25.10
2023-03-02T01:27:34.608Z,25.60
2023-03-02T01:30:01.955Z,25.42
2023-03-02T01:32:30.937Z,25.17
2023-03-02T01:34:58.295Z,24.80
2023-03-02T01:37:26.043Z,25.27
2023-03-02T01:39:53.419Z,25.63
2023-03-02T01:42:20.755Z,26.13
2023-03-02T01:44:50.170Z,25.20
2023-03-02T01:47:22.070Z,25.65
2023-03-02T01:49:58.908Z,25.85
2023-03-02T01:52:27.826Z,26.40
2023-03-02T01:54:56.550Z,25.17
2023-03-02T01:57:29.450Z,26.23
2023-03-02T02:00:00.166Z,24.83
2023-03-02T02:02:27.556Z,26.45
2023-03-02T02:04:55.016Z,26.30
2023-03-02T02:07:22.489Z,25.80
2023-03-02T02:09:50.996Z,26.40
2023-03-02T02:12:20.352Z,26.13
2023-03-02T02:14:48.033Z,27.02
2023-03-02T02:17:15.584Z,27.27
2023-03-02T02:19:48.663Z,26.85
2023-03-02T02:22:17.421Z,27.05
2023-03-02T02:24:48.715Z,26.23
2023-03-02T02:27:16.105Z,26.52
2023-03-02T02:29:46.238Z,27.02
2023-03-02T02:32:19.916Z,27.10
2023-03-02T02:34:53.591Z,27.20
2023-03-02T02:37:34.060Z,26.77
2023-03-02T02:40:07.252Z,27.25
2023-03-02T02:42:42.078Z,27.92
2023-03-02T02:45:27.625Z,25.67
2023-03-02T02:47:55.344Z,26.55
2023-03-02T02:50:30.198Z,27.65
2023-03-02T02:53:05.762Z,26.95
2023-03-02T02:55:33.949Z,28.75
2023-03-02T02:58:02.590Z,27.60
2023-03-02T03:00:29.911Z,27.92
2023-03-02T03:03:29.337Z,27.15
2023-03-02T03:06:00.309Z,27.23
2023-03-02T03:08:46.107Z,27.80
2023-03-02T03:11:27.624Z,26.88
2023-03-02T03:14:00.129Z,27.15
2023-03-02T03:16:28.804Z,28.08
2023-03-02T03:18:57.643Z,28.38
2023-03-02T03:21:25.437Z,28.20
2023-03-02T03:23:53.694Z,28.75
2023-03-02T03:26:21.220Z,30.02
2023-03-02T03:28:48.756Z,28.58
2023-03-02T03:31:16.520Z,29.20
2023-03-02T03:33:44.181Z,29.13
2023-03-02T03:36:11.690Z,28.83
2023-03-02T03:38:39.213Z,27.60
2023-03-02T03:41:06.596Z,27.95
2023-03-02T03:43:34.785Z,28.15
2023-03-02T03:46:02.194Z,28.52
2023-03-02T03:48:29.511Z,28.27
2023-03-02T03:50:59.519Z,29.30
2023-03-02T03:53:27.476Z,28.33
2023-03-02T03:55:56.935Z,28.70
2023-03-02T03:58:25.149Z,29.98
2023-03-02T04:00:52.991Z,28.92
2023-03-02T04:03:21.382Z,28.35
2023-03-02T04:05:48.881Z,28.60
2023-03-02T04:08:16.346Z,29.48
2023-03-02T04:10:43.757Z,28.30
2023-03-02T04:13:11.646Z,28.52
2023-03-02T04:15:41.698Z,28.83
2023-03-02T04:18:09.208Z,29.95
2023-03-02T04:20:37.144Z,29.10
2023-03-02T04:23:05.262Z,29.65
2023-03-02T04:25:32.580Z,30.15
2023-03-02T04:28:08.559Z,28.33
2023-03-02T04:30:38.569Z,29.40
2023-03-02T04:33:06.097Z,29.23
2023-03-02T04:35:34.965Z,28.65
2023-03-02T04:38:03.066Z,28.88
2023-03-02T04:40:30.463Z,29.67
2023-03-02T04:42:57.719Z,29.85
2023-03-02T04:45:25.027Z,28.17
2023-03-02T04:47:52.305Z,29.80
2023-03-02T04:50:19.644Z,29.13
2023-03-02T04:52:47.150Z,28.88
2023-03-02T04:55:20.075Z,28.05
2023-03-02T04:57:47.436Z,27.48
2023-03-02T05:00:16.551Z,27.85
2023-03-02T05:02:44.133Z,28.83
2023-03-02T05:05:22.764Z,28.98
2023-03-02T05:07:50.763Z,28.30
2023-03-02T05:10:18.778Z,28.35
2023-03-02T05:12:55.786Z,28.25
2023-03-02T05:15:30.622Z,29.10
2023-03-02T05:17:58.053Z,29.15
2023-03-02T05:20:27.579Z,29.00
2023-03-02T05:22:55.956Z,28.20
2023-03-02T05:25:23.532Z,28.40
2023-03-02T05:27:51.008Z,28.65
2023-03-02T05:30:18.600Z,28.70
2023-03-02T05:32:46.189Z,28.92
2023-03-02T05:35:14.265Z,28.30
2023-03-02T05:37:44.543Z,28.30
2023-03-02T05:40:13.760Z,28.48
2023-03-02T05:42:42.198Z,27.15
2023-03-02T05:45:13.704Z,28.13
2023-03-02T05:47:40.979Z,28.52
2023-03-02T05:50:08.759Z,28.33
2023-03-02T05:52:36.094Z,28.88
2023-03-02T05:55:03.526Z,27.10
2023-03-02T05:57:30.905Z,29.70
2023-03-02T05:59:58.639Z,28.73
2023-03-02T06:02:26.088Z,27.42
2023-03-02T06:04:53.435Z,30.55
2023-03-02T06:07:20.735Z,28.80
2023-03-02T06:09:48.376Z,29.20
2023-03-02T06:12:15.773Z,29.35
2023-03-02T06:14:43.142Z,28.98
2023-03-02T06:17:10.629Z,30.38
2023-03-02T06:19:37.929Z,28.80
2023-03-02T06:22:05.302Z,28.83
2023-03-02T06:24:32.884Z,30.38
2023-03-02T06:27:00.402Z,28.88
2023-03-02T06:29:27.694Z,30.13
2023-03-02T06:31:55.210Z,28.52
2023-03-02T06:34:23.083Z,29.23
2023-03-02T06:36:50.906Z,28.55
2023-03-02T06:39:18.309Z,28.48
2023-03-02T06:41:46.486Z,29.85
2023-03-02T06:44:14.343Z,29.27
2023-03-02T06:46:42.184Z,28.73
2023-03-02T06:49:09.794Z,28.98
2023-03-02T06:51:37.449Z,29.88
2023-03-02T06:54:06.929Z,28.23
2023-03-02T06:56:34.955Z,30.42
2023-03-02T06:59:02.485Z,29.20
2023-03-02T07:01:35.907Z,27.70
2023-03-02T07:04:03.796Z,28.15
2023-03-02T07:06:31.327Z,27.70
2023-03-02T07:08:58.590Z,29.05
2023-03-02T07:11:25.886Z,29.08
2023-03-02T07:13:53.239Z,28.92
2023-03-02T07:16:20.612Z,28.90
2023-03-02T07:18:48.014Z,30.73
2023-03-02T07:21:15.362Z,28.58
2023-03-02T07:23:42.925Z,29.17
2023-03-02T07:26:10.298Z,29.40
2023-03-02T07:28:41.891Z,29.52
2023-03-02T07:31:09.539Z,29.02
2023-03-02T07:33:37.528Z,30.13
2023-03-02T07:36:05.931Z,29.83
2023-03-02T07:38:33.500Z,27.00
2023-03-02T07:41:00.817Z,27.67
2023-03-02T07:43:29.331Z,26.95
2023-03-02T07:45:59.707Z,27.90
2023-03-02T07:48:27.202Z,29.35
2023-03-02T07:51:00.948Z,26.92
2023-03-02T07:53:28.563Z,27.65
2023-03-02T07:55:55.916Z,27.27
2023-03-02T07:58:24.197Z,27.02
2023-03-02T08:00:51.510Z,26.70
2023-03-02T08:03:18.834Z,25.45
2023-03-02T08:05:46.160Z,26.45
2023-03-02T08:08:13.527Z,28.05
2023-03-02T08:10:41.295Z,26.65
2023-03-02T08:13:10.944Z,26.15
2023-03-02T08:15:38.382Z,27.17
2023-03-02T08:18:05.773Z,26.05
2023-03-02T08:20:33.088Z,25.20
2023-03-02T08:23:00.412Z,25.83
2023-03-02T08:25:27.707Z,24.63
2023-03-02T08:27:55.083Z,25.02
2023-03-02T08:30:22.436Z,24.15
2023-03-02T08:32:49.931Z,26.90
2023-03-02T08:35:17.492Z,24.75
2023-03-02T08:37:44.811Z,25.33
2023-03-02T08:40:12.508Z,24.90
2023-03-02T08:42:39.880Z,24.67
2023-03-02T08:45:07.806Z,24.15
2023-03-02T08:47:35.132Z,26.92
2023-03-02T08:50:02.523Z,27.98
2023-03-02T08:52:29.809Z,24.95
2023-03-02T08:54:57.121Z,25.02
2023-03-02T08:57:24.495Z,24.65
2023-03-02T08:59:52.660Z,26.70
2023-03-02T09:02:19.995Z,25.88
2023-03-02T09:04:47.441Z,27.20
2023-03-02T09:07:17.421Z,27.00
2023-03-02T09:09:44.857Z,26.10
2023-03-02T09:12:12.252Z,24.63
2023-03-02T09:14:39.544Z,24.92
2023-03-02T09:17:06.998Z,24.83
2023-03-02T09:19:43.981Z,24.35
2023-03-02T09:22:11.949Z,22.75
2023-03-02T09:24:39.275Z,25.33
2023-03-02T09:27:06.691Z,24.80
2023-03-02T09:29:33.999Z,25.05
2023-03-02T09:32:01.487Z,24.85
2023-03-02T09:34:29.470Z,24.45
2023-03-02T09:36:56.845Z,23.13
2023-03-02T09:39:24.194Z,24.83
2023-03-02T09:42:13.621Z,25.65
2023-03-02T09:44:43.799Z,24.13
2023-03-02T09:47:37.754Z,23.23
2023-03-02T09:50:15.049Z,24.45
2023-03-02T09:53:07.639Z,23.13
2023-03-02T09:55:36.162Z,22.85
2023-03-02T09:58:08.951Z,23.13
2023-03-02T10:00:37.126Z,22.77
2023-03-02T10:03:39.191Z,22.92
2023-03-02T10:06:06.616Z,23.33
2023-03-02T10:08:35.029Z,22.73
2023-03-02T10:11:12.739Z,22.88
2023-03-02T10:13:58.438Z,23.52
2023-03-02T10:16:38.138Z,21.63
2023-03-02T10:19:47.975Z,22.80
2023-03-02T10:22:50.894Z,22.50
2023-03-02T10:25:35.963Z,22.15
2023-03-02T10:28:17.660Z,22.27
2023-03-02T10:30:45.788Z,23.23
2023-03-02T10:33:19.939Z,22.45
2023-03-02T10:35:51.941Z,20.88
2023-03-02T10:38:24.205Z,22.83
2023-03-02T10:41:02.351Z,20.92
2023-03-02T10:43:39.626Z,20.88
2023-03-02T10:46:08.660Z,22.02
2023-03-02T10:48:49.856Z,21.80
2023-03-02T10:51:35.293Z,23.00
2023-03-02T10:54:13.303Z,22.30
2023-03-02T10:56:47.408Z,22.10
2023-03-02T10:59:27.101Z,21.75
2023-03-02T11:02:02.744Z,21.00
2023-03-02T11:04:30.827Z,20.77
2023-03-02T11:07:08.929Z,20.73
2023-03-02T11:09:36.301Z,20.65
2023-03-02T11:12:03.820Z,20.23
2023-03-02T11:14:31.194Z,20.63
2023-03-02T11:16:58.568Z,19.67
2023-03-02T11:19:35.168Z,20.13
2023-03-02T11:22:30.642Z,19.30
2023-03-02T11:24:58.430Z,20.38
2023-03-02T11:27:28.066Z,19.27
2023-03-02T11:30:01.265Z,19.33
2023-03-02T11:32:53.663Z,20.25
2023-03-02T11:35:34.243Z,19.38
2023-03-02T11:38:13.470Z,19.63
2023-03-02T11:40:54.216Z,19.27
2023-03-02T11:43:21.567Z,19.25
2023-03-02T11:45:59.761Z,17.80
2023-03-02T11:48:34.470Z,18.98
2023-03-02T11:51:06.942Z,19.90
2023-03-02T11:53:41.730Z,19.15
2023-03-02T11:56:09.103Z,17.20
2023-03-02T11:58:36.411Z,17.77
2023-03-02T12:01:03.836Z,17.23
2023-03-02T12:03:31.205Z,17.25
2023-03-02T12:06:15.026Z,17.73
2023-03-02T12:08:43.931Z,15.77
2023-03-02T12:11:17.604Z,16.05
2023-03-02T12:13:46.411Z,16.38
2023-03-02T12:16:34.253Z,16.73
2023-03-02T12:19:17.977Z,16.65
2023-03-02T12:22:02.808Z,17.35
2023-03-02T12:24:34.684Z,16.08
2023-03-02T12:27:07.563Z,16.42
2023-03-02T12:29:42.416Z,15.73
2023-03-02T12:32:30.568Z,17.88
2023-03-02T12:35:00.687Z,15.52
2023-03-02T12:37:33.641Z,15.18
2023-03-02T12:40:15.438Z,14.30
2023-03-02T12:43:16.941Z,13.73
2023-03-02T12:45:52.998Z,15.38
2023-03-02T12:48:37.299Z,13.80
2023-03-02T12:51:05.225Z,14.93
2023-03-02T12:53:32.679Z,13.70
2023-03-02T12:56:00.626Z,16.25
2023-03-02T12:58:28.716Z,14.27
2023-03-02T13:00:58.519Z,13.93
2023-03-02T13:03:27.028Z,12.95
2023-03-02T13:06:04.973Z,14.70
2023-03-02T13:08:32.495Z,12.93
2023-03-02T13:11:01.468Z,13.52
2023-03-02T13:13:35.592Z,13.55
2023-03-02T13:16:05.400Z,13.52
2023-03-02T13:18:39.241Z,13.15
2023-03-02T13:21:06.570Z,13.70
2023-03-02T13:23:34.145Z,14.38
2023-03-02T13:26:02.908Z,14.50
2023-03-02T13:28:34.538Z,14.52
2023-03-02T13:31:18.110Z,13.05
2023-03-02T13:33:46.370Z,13.25
2023-03-02T13:36:30.933Z,12.95
2023-03-02T13:41:31.358Z,12.85
2023-03-02T13:43:59.239Z,12.45
2023-03-02T13:46:36.697Z,12.50
2023-03-02T13:49:11.026Z,12.38
2023-03-02T13:51:43.813Z,12.35
2023-03-02T13:54:22.199Z,28.25
2023-03-02T13:56:51.198Z,12.02
2023-03-02T13:59:19.260Z,12.65
2023-03-02T14:01:46.706Z,12.68
2023-03-02T14:04:15.158Z,12.30
2023-03-02T14:06:42.678Z,12.27
2023-03-02T14:09:10.205Z,11.10
2023-03-02T14:11:39.078Z,11.88
2023-03-02T14:14:06.460Z,12.75
2023-03-02T14:16:37.121Z,12.13
2023-03-02T14:19:04.449Z,13.15
2023-03-02T14:21:32.394Z,12.63
2023-03-02T14:23:59.989Z,14.18
2023-03-02T14:26:46.370Z,12.93
2023-03-02T14:29:29.147Z,13.43
2023-03-02T14:31:57.687Z,13.00
2023-03-02T14:34:25.046Z,13.45
2023-03-02T14:36:54.078Z,14.85
2023-03-02T14:39:37.068Z,13.25
2023-03-02T14:42:05.727Z,13.32
2023-03-02T14:44:33.166Z,12.55
2023-03-02T14:47:00.494Z,22.23
2023-03-02T14:49:27.824Z,22.98
2023-03-02T14:51:58.705Z,23.25
2023-03-02T14:54:26.167Z,24.10
2023-03-02T14:56:53.593Z,23.58
2023-03-02T14:59:21.000Z,23.00
2023-03-02T15:01:48.405Z,24.25
2023-03-02T15:04:15.930Z,23.17
2023-03-02T15:06:43.385Z,22.98
2023-03-02T15:09:11.342Z,24.35
2023-03-02T15:11:38.763Z,23.13
2023-03-02T15:14:06.165Z,22.08
2023-03-02T15:16:33.562Z,23.40
2023-03-02T15:19:01.444Z,23.25
2023-03-02T15:21:29.085Z,23.45
2023-03-02T15:23:56.462Z,25.00
2023-03-02T15:26:23.863Z,24.73
2023-03-02T15:28:51.786Z,24.65
2023-03-02T15:31:19.333Z,25.48
2023-03-02T15:33:46.890Z,24.35
2023-03-02T15:36:14.512Z,24.60
2023-03-02T15:38:41.881Z,25.25
2023-03-02T15:41:12.311Z,26.40
2023-03-02T15:43:39.730Z,26.35
2023-03-02T15:46:09.242Z,25.92
2023-03-02T15:48:36.996Z,26.05
2023-03-02T15:51:05.958Z,25.65
2023-03-02T15:53:36.772Z,26.02
2023-03-02T15:56:06.685Z,26.75
2023-03-02T15:58:34.699Z,26.70
2023-03-02T16:01:10.006Z,26.35
2023-03-02T16:03:38.046Z,27.52
2023-03-02T16:06:05.702Z,27.52
2023-03-02T16:08:33.010Z,27.00
2023-03-02T16:11:01.922Z,25.73
2023-03-02T16:13:30.419Z,28.15
2023-03-02T16:16:00.236Z,27.55
2023-03-02T16:18:27.563Z,26.38
2023-03-02T16:20:55.112Z,27.52
2023-03-02T16:23:22.538Z,27.70
2023-03-02T16:25:50.189Z,26.30
2023-03-02T16:28:18.065Z,28.33
2023-03-02T16:30:45.658Z,27.33
2023-03-02T16:33:15.321Z,27.50
2023-03-02T16:35:42.769Z,28.10
2023-03-02T16:38:10.295Z,26.60
2023-03-02T16:40:40.044Z,26.55
2023-03-02T16:43:09.012Z,28.15
2023-03-02T16:45:36.519Z,28.30
2023-03-02T16:48:04.830Z,27.90
2023-03-02T16:50:32.569Z,27.90
2023-03-02T16:52:59.938Z,28.70
2023-03-02T16:55:27.462Z,28.90
2023-03-02T16:57:54.911Z,28.02
2023-03-02T17:00:22.983Z,26.50
2023-03-02T17:02:50.663Z,28.55
2023-03-02T17:05:18.964Z,28.27
2023-03-02T17:07:46.533Z,28.17
2023-03-02T17:10:16.083Z,29.10
2023-03-02T17:12:43.468Z,28.95
2023-03-02T17:15:14.375Z,28.08
2023-03-02T17:17:41.807Z,28.17
2023-03-02T17:20:11.222Z,28.45
2023-03-02T17:22:38.910Z,28.40
2023-03-02T17:25:06.525Z,29.58
2023-03-02T17:27:33.902Z,29.95
2023-03-02T17:30:01.326Z,29.38
2023-03-02T17:32:28.836Z,28.23
2023-03-02T17:34:56.209Z,29.85
2023-03-02T17:37:25.751Z,29.35
2023-03-02T17:39:53.211Z,32.42
2023-03-02T17:42:20.611Z,30.52
2023-03-02T17:44:47.921Z,29.23
2023-03-02T17:47:16.294Z,30.30
2023-03-02T17:49:45.265Z,29.88
2023-03-02T17:52:13.616Z,31.58
2023-03-02T17:54:41.220Z,29.88
2023-03-02T17:57:08.857Z,30.42
2023-03-02T17:59:36.272Z,29.98
2023-03-02T18:02:03.716Z,30.10
2023-03-02T18:04:31.045Z,29.83
2023-03-02T18:06:58.748Z,30.38
2023-03-02T18:09:26.128Z,31.15
2023-03-02T18:11:53.622Z,31.60
2023-03-02T18:14:21.042Z,30.17
2023-03-02T18:16:48.443Z,30.77
2023-03-02T18:19:15.820Z,31.88
2023-03-02T18:21:43.216Z,30.60
2023-03-02T18:24:10.595Z,30.52
2023-03-02T18:26:38.071Z,30.83
2023-03-02T18:29:05.634Z,35.30
2023-03-02T18:31:34.250Z,31.45
2023-03-02T18:34:02.602Z,31.70
2023-03-02T18:36:30.095Z,30.95
2023-03-02T18:38:57.498Z,30.70
2023-03-02T18:41:24.874Z,32.00
2023-03-02T18:43:52.287Z,31.23
2023-03-02T18:46:23.466Z,30.70
2023-03-02T18:48:51.296Z,31.75
2023-03-02T18:51:19.379Z,29.85
2023-03-02T18:53:47.026Z,32.63
2023-03-02T18:56:14.364Z,30.60
2023-03-02T18:58:41.797Z,29.83
2023-03-02T19:01:09.301Z,30.73
2023-03-02T19:03:38.612Z,31.30
2023-03-02T19:06:07.294Z,31.48
2023-03-02T19:08:35.508Z,31.90
2023-03-02T19:11:03.230Z,32.60
2023-03-02T19:13:30.737Z,32.10
2023-03-02T19:15:58.097Z,31.70
2023-03-02T19:18:25.775Z,31.88
2023-03-02T19:20:54.375Z,31.65
2023-03-02T19:23:21.852Z,30.52
2023-03-02T19:25:49.362Z,32.17
2023-03-02T19:28:16.818Z,31.63
2023-03-02T19:30:44.153Z,30.45
2023-03-02T19:33:11.535Z,31.50
2023-03-02T19:35:39.125Z,31.23
2023-03-02T19:38:07.135Z,30.52
2023-03-02T19:40:34.664Z,31.15
2023-03-02T19:43:02.218Z,30.92
2023-03-02T19:45:32.419Z,31.25
2023-03-02T19:48:00.164Z,32.30
2023-03-02T19:50:28.310Z,31.13
2023-03-02T19:52:56.296Z,33.08
2023-03-02T19:55:24.296Z,32.05
2023-03-02T19:57:56.624Z,30.20
2023-03-02T20:00:24.380Z,31.42
2023-03-02T20:02:51.732Z,30.25
2023-03-02T20:05:19.159Z,31.15
2023-03-02T20:07:46.498Z,32.60
2023-03-02T20:10:31.100Z,30.88
2023-03-02T20:15:28.303Z,30.65
2023-03-02T20:17:55.719Z,31.42
2023-03-02T20:20:24.751Z,30.20
2023-03-02T20:22:52.217Z,30.55
2023-03-02T20:25:20.315Z,29.90
2023-03-02T20:27:51.907Z,30.58
2023-03-02T20:30:28.675Z,31.73
2023-03-02T20:32:56.468Z,33.22
2023-03-02T20:35:24.009Z,32.42
2023-03-02T20:37:52.366Z,31.42
2023-03-02T20:40:20.302Z,30.50
2023-03-02T20:42:47.670Z,31.63
2023-03-02T20:45:15.103Z,32.03
2023-03-02T20:47:42.575Z,31.17
2023-03-02T20:50:11.227Z,30.58
2023-03-02T20:52:38.595Z,30.83
2023-03-02T20:55:06.536Z,31.25
2023-03-02T20:57:33.979Z,32.03
2023-03-02T21:00:01.425Z,31.20
2023-03-02T21:02:28.822Z,34.25
2023-03-02T21:04:56.247Z,31.50
2023-03-02T21:07:23.836Z,31.00
2023-03-02T21:09:51.238Z,31.02
2023-03-02T21:12:18.791Z,31.70
2023-03-02T21:14:46.196Z,31.73
2023-03-02T21:17:13.552Z,31.85
2023-03-02T21:19:40.865Z,33.42
2023-03-02T21:22:08.190Z,32.33
2023-03-02T21:24:35.603Z,31.10
2023-03-02T21:27:02.983Z,31.02
2023-03-02T21:29:30.675Z,31.55
2023-03-02T21:31:58.219Z,31.52
2023-03-02T21:34:25.581Z,30.90
2023-03-02T21:36:53.774Z,32.38
2023-03-02T21:39:23.560Z,30.83
2023-03-02T21:41:51.273Z,31.15
2023-03-02T21:44:19.050Z,29.77
2023-03-02T21:46:46.595Z,32.45
2023-03-02T21:49:18.240Z,32.10
2023-03-02T21:51:47.111Z,30.40
2023-03-02T21:54:16.122Z,30.98
2023-03-02T21:56:43.690Z,30.83
2023-03-02T21:59:11.118Z,32.05
2023-03-02T22:01:38.667Z,31.88
2023-03-02T22:04:06.038Z,32.28
2023-03-02T22:06:33.975Z,32.63
2023-03-02T22:09:01.671Z,30.73
2023-03-02T22:11:31.163Z,32.42
2023-03-02T22:14:00.571Z,30.75
2023-03-02T22:16:33.191Z,31.95
2023-03-02T22:19:00.681Z,31.92
2023-03-02T22:21:38.133Z,29.77
2023-03-02T22:24:08.592Z,30.88
2023-03-02T22:26:37.982Z,29.58
2023-03-02T22:29:12.970Z,31.35
2023-03-02T22:31:46.229Z,31.00
2023-03-02T22:34:15.572Z,31.25
2023-03-02T22:36:44.220Z,29.77
2023-03-02T22:39:15.515Z,30.38
2023-03-02T22:41:42.914Z,31.60
2023-03-02T22:44:11.726Z,30.90
2023-03-02T22:46:39.880Z,30.73
2023-03-02T22:49:16.895Z,30.95
2023-03-02T22:51:44.973Z,31.02
2023-03-02T22:54:27.228Z,30.95
2023-03-02T22:56:56.966Z,29.92
2023-03-02T22:59:25.888Z,30.80
2023-03-02T23:01:54.182Z,30.98
2023-03-02T23:04:27.257Z,30.48
2023-03-02T23:07:02.673Z,29.80
2023-03-02T23:09:32.009Z,31.77
2023-03-02T23:12:01.807Z,30.95
2023-03-02T23:14:39.367Z,31.48
2023-03-02T23:17:14.155Z,31.67
2023-03-02T23:19:41.635Z,30.90
2023-03-02T23:22:09.024Z,32.35
2023-03-02T23:24:36.810Z,31.55
2023-03-02T23:27:04.320Z,31.25
2023-03-02T23:29:32.180Z,31.25
2023-03-02T23:31:59.788Z,30.75
2023-03-02T23:34:31.005Z,30.92
2023-03-02T23:36:59.037Z,30.15
2023-03-02T23:39:26.574Z,30.02
2023-03-02T23:41:54.068Z,29.80
2023-03-02T23:44:21.497Z,28.38
2023-03-02T23:46:49.300Z,31.33
2023-03-02T23:49:16.885Z,29.80
2023-03-02T23:51:44.631Z,31.50
2023-03-02T23:54:12.062Z,30.88
2023-03-02T23:56:39.554Z,30.27
2023-03-02T23:59:06.903Z,30.88
